Time,TemperatureF,DewpointF,PressureIn,WindDirection,WindDirectionDegrees,WindSpeedMPH,WindSpeedGustMPH,Humidity,HourlyPrecipIn,Conditions,Clouds,dailyrainin,SoftwareType,DateUTC
2013-05-30 00:04:00,43.2,24.3,29.57,NNW,338,3.0,9.0,47,0.00,,,0.00,meteohub,2013-05-30 06:04:00,
2013-05-30 00:09:00,43.2,24.3,29.58,NNE,25,3.0,7.0,47,0.00,,,0.00,meteohub,2013-05-30 06:09:00,
2013-05-30 00:14:00,43.0,24.1,29.58,NW,326,1.0,5.0,47,0.00,,,0.00,meteohub,2013-05-30 06:14:00,
2013-05-30 00:19:00,43.2,24.3,29.58,WSW,257,10.0,10.0,47,0.00,,,0.00,meteohub,2013-05-30 06:19:00,
2013-05-30 00:24:00,43.7,22.6,29.58,NW,305,2.0,8.0,43,0.00,,,0.00,meteohub,2013-05-30 06:24:00,
2013-05-30 00:29:00,44.4,23.4,29.58,NNW,340,5.0,10.0,43,0.00,,,0.00,meteohub,2013-05-30 06:29:00,
2013-05-30 00:34:00,43.5,23.5,29.58,West,281,5.0,10.0,45,0.00,,,0.00,meteohub,2013-05-30 06:34:00,
2013-05-30 00:39:00,44.4,21.0,29.58,NNW,333,1.0,9.0,39,0.00,,,0.00,meteohub,2013-05-30 06:39:00,
2013-05-30 00:45:00,45.0,20.3,29.58,NW,321,1.0,11.0,37,0.00,,,0.00,meteohub,2013-05-30 06:45:00,
2013-05-30 00:50:00,44.1,21.9,29.59,East,92,1.0,11.0,41,0.00,,,0.00,meteohub,2013-05-30 06:50:00,
2013-05-30 00:55:00,43.3,22.8,29.59,ESE,119,4.0,11.0,44,0.00,,,0.00,meteohub,2013-05-30 06:55:00,
2013-05-30 01:00:00,42.8,22.5,29.59,SW,228,0.0,7.0,44,0.00,,,0.00,meteohub,2013-05-30 07:00:00,
2013-05-30 01:05:00,43.0,23.5,29.59,ESE,107,3.0,4.0,46,0.00,,,0.00,meteohub,2013-05-30 07:05:00,
2013-05-30 01:10:00,43.0,24.1,29.59,NW,318,3.0,4.0,47,0.00,,,0.00,meteohub,2013-05-30 07:10:00,
2013-05-30 01:15:00,42.4,23.7,29.59,NNE,25,4.0,4.0,47,0.00,,,0.00,meteohub,2013-05-30 07:15:00,
2013-05-30 01:20:00,42.4,24.1,29.59,WNW,288,3.0,5.0,48,0.00,,,0.00,meteohub,2013-05-30 07:20:00,
2013-05-30 01:25:00,42.3,23.0,29.60,ESE,117,1.0,9.0,46,0.00,,,0.00,meteohub,2013-05-30 07:25:00,
2013-05-30 01:30:00,43.2,23.7,29.59,ENE,65,4.0,9.0,46,0.00,,,0.00,meteohub,2013-05-30 07:30:00,
2013-05-30 01:35:00,43.0,23.2,29.59,South,170,1.0,7.0,45,0.00,,,0.00,meteohub,2013-05-30 07:35:00,
2013-05-30 01:40:00,42.6,23.4,29.59,SE,146,1.0,7.0,46,0.00,,,0.00,meteohub,2013-05-30 07:40:00,
2013-05-30 01:45:00,42.8,23.4,29.59,SSE,166,1.0,7.0,46,0.00,,,0.00,meteohub,2013-05-30 07:45:00,
2013-05-30 01:51:00,42.6,23.4,29.59,SW,225,0.0,3.0,46,0.00,,,0.00,meteohub,2013-05-30 07:51:00,
2013-05-30 01:56:00,42.6,23.4,29.59,East,84,2.0,3.0,46,0.00,,,0.00,meteohub,2013-05-30 07:56:00,
2013-05-30 02:01:00,42.6,23.4,29.59,ENE,75,3.0,5.0,46,0.00,,,0.00,meteohub,2013-05-30 08:01:00,
2013-05-30 02:06:00,42.6,23.7,29.59,ESE,107,3.0,5.0,47,0.00,,,0.00,meteohub,2013-05-30 08:06:00,
2013-05-30 02:11:00,41.9,23.7,29.59,East,94,0.0,5.0,48,0.00,,,0.00,meteohub,2013-05-30 08:11:00,
2013-05-30 02:16:00,41.7,23.5,29.60,NW,322,1.0,5.0,48,0.00,,,0.00,meteohub,2013-05-30 08:16:00,
2013-05-30 02:21:00,41.5,23.7,29.59,NW,319,3.0,4.0,49,0.00,,,0.00,meteohub,2013-05-30 08:21:00,
2013-05-30 02:26:00,41.5,24.8,29.59,NNE,22,6.0,6.0,51,0.00,,,0.00,meteohub,2013-05-30 08:26:00,
2013-05-30 02:31:00,41.4,25.0,29.59,WNW,287,2.0,9.0,52,0.00,,,0.00,meteohub,2013-05-30 08:31:00,
2013-05-30 02:36:00,41.2,24.8,29.60,NNW,328,0.0,9.0,52,0.00,,,0.00,meteohub,2013-05-30 08:36:00,
2013-05-30 02:41:00,40.8,24.6,29.59,NNE,29,0.0,7.0,52,0.00,,,0.00,meteohub,2013-05-30 08:41:00,
2013-05-30 02:46:00,40.8,25.0,29.59,NNE,23,0.0,4.0,53,0.00,,,0.00,meteohub,2013-05-30 08:46:00,
2013-05-30 02:51:00,40.8,24.6,29.59,SW,236,5.0,5.0,52,0.00,,,0.00,meteohub,2013-05-30 08:51:00,
2013-05-30 02:56:00,40.5,23.7,29.59,SW,221,0.0,6.0,51,0.00,,,0.00,meteohub,2013-05-30 08:56:00,
2013-05-30 03:01:00,40.5,24.3,29.59,South,188,0.0,6.0,52,0.00,,,0.00,meteohub,2013-05-30 09:01:00,
2013-05-30 03:06:00,40.6,24.4,29.59,SSW,201,0.0,6.0,52,0.00,,,0.00,meteohub,2013-05-30 09:06:00,
2013-05-30 03:12:00,41.0,24.3,29.59,SSE,153,3.0,3.0,51,0.00,,,0.00,meteohub,2013-05-30 09:12:00,
2013-05-30 03:17:00,40.8,24.1,29.59,SSW,212,3.0,3.0,51,0.00,,,0.00,meteohub,2013-05-30 09:17:00,
2013-05-30 03:22:00,40.3,24.4,29.59,SE,138,3.0,4.0,53,0.00,,,0.00,meteohub,2013-05-30 09:22:00,
2013-05-30 03:27:00,40.5,24.6,29.59,SE,131,3.0,4.0,53,0.00,,,0.00,meteohub,2013-05-30 09:27:00,
2013-05-30 03:32:00,40.6,24.8,29.59,South,177,4.0,5.0,53,0.00,,,0.00,meteohub,2013-05-30 09:32:00,
2013-05-30 03:37:00,40.5,24.6,29.59,South,179,1.0,5.0,53,0.00,,,0.00,meteohub,2013-05-30 09:37:00,
2013-05-30 03:42:00,40.3,24.4,29.59,SSE,148,2.0,5.0,53,0.00,,,0.00,meteohub,2013-05-30 09:42:00,
2013-05-30 03:47:00,40.6,24.4,29.58,SE,144,9.0,9.0,52,0.00,,,0.00,meteohub,2013-05-30 09:47:00,
2013-05-30 03:52:00,41.2,23.9,29.59,SE,129,6.0,9.0,50,0.00,,,0.00,meteohub,2013-05-30 09:52:00,
2013-05-30 03:57:00,41.4,23.2,29.59,SSE,148,4.0,9.0,48,0.00,,,0.00,meteohub,2013-05-30 09:57:00,
2013-05-30 04:02:00,41.0,23.4,29.59,SE,132,4.0,9.0,49,0.00,,,0.00,meteohub,2013-05-30 10:02:00,
2013-05-30 04:07:00,40.8,23.2,29.59,ESE,106,4.0,7.0,49,0.00,,,0.00,meteohub,2013-05-30 10:07:00,
2013-05-30 04:12:00,40.6,23.0,29.59,SSE,150,3.0,7.0,49,0.00,,,0.00,meteohub,2013-05-30 10:12:00,
2013-05-30 04:17:00,40.5,22.8,29.60,South,181,0.0,6.0,49,0.00,,,0.00,meteohub,2013-05-30 10:17:00,
2013-05-30 04:22:00,39.9,22.8,29.60,WSW,253,1.0,6.0,50,0.00,,,0.00,meteohub,2013-05-30 10:22:00,
2013-05-30 04:27:00,39.6,23.0,29.60,SSE,166,0.0,5.0,51,0.00,,,0.00,meteohub,2013-05-30 10:27:00,
2013-05-30 04:32:00,39.6,23.0,29.60,WSW,245,1.0,4.0,51,0.00,,,0.00,meteohub,2013-05-30 10:32:00,
2013-05-30 04:37:00,39.7,22.6,29.60,SSW,200,0.0,4.0,50,0.00,,,0.00,meteohub,2013-05-30 10:37:00,
2013-05-30 04:42:00,39.9,22.8,29.60,South,183,4.0,4.0,50,0.00,,,0.00,meteohub,2013-05-30 10:42:00,
2013-05-30 04:47:00,40.5,22.8,29.60,SSE,165,4.0,6.0,49,0.00,,,0.00,meteohub,2013-05-30 10:47:00,
2013-05-30 04:52:00,40.3,22.6,29.60,South,176,1.0,6.0,49,0.00,,,0.00,meteohub,2013-05-30 10:52:00,
2013-05-30 04:57:00,40.6,23.0,29.60,West,278,1.0,6.0,49,0.00,,,0.00,meteohub,2013-05-30 10:57:00,
2013-05-30 05:02:00,39.9,22.8,29.60,SSE,154,6.0,8.0,50,0.00,,,0.00,meteohub,2013-05-30 11:02:00,
2013-05-30 05:07:00,40.5,23.4,29.60,South,170,5.0,8.0,50,0.00,,,0.00,meteohub,2013-05-30 11:07:00,
2013-05-30 05:12:00,40.3,23.2,29.60,SSE,152,3.0,7.0,50,0.00,,,0.00,meteohub,2013-05-30 11:12:00,
2013-05-30 05:17:00,39.7,23.2,29.60,SSE,161,5.0,7.0,51,0.00,,,0.00,meteohub,2013-05-30 11:17:00,
2013-05-30 05:22:00,39.7,23.2,29.61,SSW,200,3.0,8.0,51,0.00,,,0.00,meteohub,2013-05-30 11:22:00,
2013-05-30 05:27:00,39.6,23.0,29.61,SE,145,2.0,10.0,51,0.00,,,0.00,meteohub,2013-05-30 11:27:00,
2013-05-30 05:32:00,39.6,23.0,29.61,SE,129,6.0,10.0,51,0.00,,,0.00,meteohub,2013-05-30 11:32:00,
2013-05-30 05:37:00,39.7,23.2,29.61,WSW,242,3.0,8.0,51,0.00,,,0.00,meteohub,2013-05-30 11:37:00,
2013-05-30 05:42:00,39.4,22.8,29.62,South,175,2.0,7.0,51,0.00,,,0.00,meteohub,2013-05-30 11:42:00,
2013-05-30 05:47:00,39.6,23.0,29.62,SE,145,6.0,7.0,51,0.00,,,0.00,meteohub,2013-05-30 11:47:00,
2013-05-30 05:52:00,39.7,22.6,29.62,ESE,110,4.0,10.0,50,0.00,,,0.00,meteohub,2013-05-30 11:52:00,
2013-05-30 05:57:00,39.6,22.5,29.62,WSW,257,4.0,10.0,50,0.00,,,0.00,meteohub,2013-05-30 11:57:00,
2013-05-30 06:02:00,40.1,23.0,29.62,ENE,72,3.0,10.0,50,0.00,,,0.00,meteohub,2013-05-30 12:02:00,
2013-05-30 06:07:00,40.8,23.2,29.62,SE,124,2.0,7.0,49,0.00,,,0.00,meteohub,2013-05-30 12:07:00,
2013-05-30 06:12:00,41.4,23.2,29.62,East,98,5.0,6.0,48,0.00,,,0.00,meteohub,2013-05-30 12:12:00,
2013-05-30 06:17:00,41.7,23.0,29.62,SE,138,5.0,7.0,47,0.00,,,0.00,meteohub,2013-05-30 12:17:00,
2013-05-30 06:22:00,42.1,23.4,29.63,ENE,61,1.0,7.0,47,0.00,,,0.00,meteohub,2013-05-30 12:22:00,
2013-05-30 06:27:00,42.6,22.8,29.63,WSW,239,4.0,7.0,45,0.00,,,0.00,meteohub,2013-05-30 12:27:00,
2013-05-30 06:32:00,42.8,23.0,29.62,NNW,338,6.0,8.0,45,0.00,,,0.00,meteohub,2013-05-30 12:32:00,
2013-05-30 06:37:00,43.2,22.1,29.62,SW,236,1.0,15.0,43,0.00,,,0.00,meteohub,2013-05-30 12:37:00,
2013-05-30 06:42:00,44.1,18.9,29.63,WNW,302,1.0,15.0,36,0.00,,,0.00,meteohub,2013-05-30 12:42:00,
2013-05-30 06:47:00,45.3,18.7,29.64,WNW,285,10.0,15.0,34,0.00,,,0.00,meteohub,2013-05-30 12:47:00,
2013-05-30 06:52:00,45.9,18.3,29.63,WNW,285,5.0,20.0,33,0.00,,,0.00,meteohub,2013-05-30 12:52:00,
2013-05-30 06:57:00,46.0,18.5,29.63,NW,305,15.0,21.0,33,0.00,,,0.00,meteohub,2013-05-30 12:57:00,
2013-05-30 07:02:00,46.2,18.7,29.63,WNW,284,8.0,21.0,33,0.00,,,0.00,meteohub,2013-05-30 13:02:00,
2013-05-30 07:07:00,46.4,17.4,29.64,NW,314,7.0,26.0,31,0.00,,,0.00,meteohub,2013-05-30 13:07:00,
2013-05-30 07:12:00,46.8,19.2,29.64,NW,325,5.0,26.0,33,0.00,,,0.00,meteohub,2013-05-30 13:12:00,
2013-05-30 07:17:00,46.8,17.8,29.64,NW,307,5.0,18.0,31,0.00,,,0.00,meteohub,2013-05-30 13:17:00,
2013-05-30 07:22:00,46.8,18.5,29.64,NNW,329,6.0,21.0,32,0.00,,,0.00,meteohub,2013-05-30 13:22:00,
2013-05-30 07:27:00,46.9,18.7,29.65,NNW,337,11.0,27.0,32,0.00,,,0.00,meteohub,2013-05-30 13:27:00,
2013-05-30 07:32:00,46.9,17.8,29.65,NNW,335,22.0,27.0,31,0.00,,,0.00,meteohub,2013-05-30 13:32:00,
2013-05-30 07:38:00,46.9,15.4,29.65,NNW,329,13.0,29.0,28,0.00,,,0.00,meteohub,2013-05-30 13:38:00,
2013-05-30 07:43:00,47.1,18.0,29.65,NW,323,13.0,29.0,31,0.00,,,0.00,meteohub,2013-05-30 13:43:00,
2013-05-30 07:48:00,46.9,17.8,29.65,NW,319,10.0,33.0,31,0.00,,,0.00,meteohub,2013-05-30 13:48:00,
2013-05-30 07:53:00,47.3,17.4,29.65,NNW,327,16.0,33.0,30,0.00,,,0.00,meteohub,2013-05-30 13:53:00,
2013-05-30 07:58:00,47.5,16.9,29.65,NNW,338,19.0,33.0,29,0.00,,,0.00,meteohub,2013-05-30 13:58:00,
2013-05-30 08:03:00,47.1,17.2,29.66,NNW,327,13.0,27.0,30,0.00,,,0.00,meteohub,2013-05-30 14:03:00,
2013-05-30 08:08:00,47.1,16.5,29.65,NNW,336,14.0,27.0,29,0.00,,,0.00,meteohub,2013-05-30 14:08:00,
2013-05-30 08:13:00,47.7,17.8,29.66,North,354,15.0,27.0,30,0.00,,,0.00,meteohub,2013-05-30 14:13:00,
2013-05-30 08:18:00,47.8,17.1,29.66,NW,316,5.0,22.0,29,0.00,,,0.00,meteohub,2013-05-30 14:18:00,
2013-05-30 08:23:00,47.7,16.9,29.66,NW,321,13.0,22.0,29,0.00,,,0.00,meteohub,2013-05-30 14:23:00,
2013-05-30 08:28:00,47.7,16.2,29.66,NW,326,15.0,23.0,28,0.00,,,0.00,meteohub,2013-05-30 14:28:00,
2013-05-30 08:33:00,47.7,16.2,29.65,NW,320,14.0,23.0,28,0.00,,,0.00,meteohub,2013-05-30 14:33:00,
2013-05-30 08:39:00,48.0,14.7,29.66,WNW,289,10.0,29.0,26,0.00,,,0.00,meteohub,2013-05-30 14:39:00,
2013-05-30 08:44:00,48.7,15.4,29.66,WNW,288,13.0,39.0,26,0.00,,,0.00,meteohub,2013-05-30 14:44:00,
2013-05-30 08:49:00,48.9,14.5,29.65,WNW,294,12.0,39.0,25,0.00,,,0.00,meteohub,2013-05-30 14:49:00,
2013-05-30 08:54:00,48.9,15.4,29.66,West,276,13.0,28.0,26,0.00,,,0.00,meteohub,2013-05-30 14:54:00,
2013-05-30 08:59:00,49.5,14.2,29.66,West,279,7.0,28.0,24,0.00,,,0.00,meteohub,2013-05-30 14:59:00,
2013-05-30 09:04:00,49.1,13.8,29.66,NW,307,7.0,28.0,24,0.00,,,0.00,meteohub,2013-05-30 15:04:00,
2013-05-30 09:09:00,49.6,14.4,29.66,NNW,343,17.0,35.0,24,0.00,,,0.00,meteohub,2013-05-30 15:09:00,
2013-05-30 09:14:00,50.2,12.7,29.66,NW,326,16.0,35.0,22,0.00,,,0.00,meteohub,2013-05-30 15:14:00,
2013-05-30 09:19:00,49.8,12.6,29.66,WSW,257,13.0,35.0,22,0.00,,,0.00,meteohub,2013-05-30 15:19:00,
2013-05-30 09:24:00,50.4,11.8,29.66,NNW,327,10.0,28.0,21,0.00,,,0.00,meteohub,2013-05-30 15:24:00,
2013-05-30 09:30:00,50.4,12.9,29.66,NW,316,6.0,28.0,22,0.00,,,0.00,meteohub,2013-05-30 15:30:00,
2013-05-30 09:35:00,50.7,13.3,29.66,West,260,6.0,26.0,22,0.00,,,0.00,meteohub,2013-05-30 15:35:00,
2013-05-30 09:40:00,50.7,13.3,29.66,NW,320,5.0,22.0,22,0.00,,,0.00,meteohub,2013-05-30 15:40:00,
2013-05-30 09:45:00,50.9,11.3,29.65,NNW,342,6.0,22.0,20,0.00,,,0.00,meteohub,2013-05-30 15:45:00,
2013-05-30 09:50:00,51.3,11.5,29.66,NW,325,19.0,22.0,20,0.00,,,0.00,meteohub,2013-05-30 15:50:00,
2013-05-30 09:55:00,51.1,12.6,29.65,NW,315,19.0,28.0,21,0.00,,,0.00,meteohub,2013-05-30 15:55:00,
2013-05-30 10:00:00,51.3,12.6,29.65,WNW,293,8.0,28.0,21,0.00,,,0.00,meteohub,2013-05-30 16:00:00,
2013-05-30 10:05:00,52.2,13.5,29.65,NW,322,7.0,24.0,21,0.00,,,0.00,meteohub,2013-05-30 16:05:00,
2013-05-30 10:10:00,52.5,12.6,29.65,NW,325,10.0,23.0,20,0.00,,,0.00,meteohub,2013-05-30 16:10:00,
2013-05-30 10:15:00,53.1,10.6,29.66,WNW,286,18.0,18.0,18,0.00,,,0.00,meteohub,2013-05-30 16:15:00,
2013-05-30 10:20:00,52.9,11.7,29.65,NNW,332,13.0,20.0,19,0.00,,,0.00,meteohub,2013-05-30 16:20:00,
2013-05-30 10:25:00,52.5,11.5,29.65,NNW,338,8.0,20.0,19,0.00,,,0.00,meteohub,2013-05-30 16:25:00,
2013-05-30 10:30:00,52.7,11.7,29.65,WNW,297,5.0,23.0,19,0.00,,,0.00,meteohub,2013-05-30 16:30:00,
2013-05-30 10:35:00,53.6,11.1,29.65,NNW,346,26.0,26.0,18,0.00,,,0.00,meteohub,2013-05-30 16:35:00,
2013-05-30 10:41:00,53.1,10.6,29.65,West,259,3.0,34.0,18,0.00,,,0.00,meteohub,2013-05-30 16:41:00,
2013-05-30 10:46:00,53.1,10.6,29.65,WNW,302,19.0,34.0,18,0.00,,,0.00,meteohub,2013-05-30 16:46:00,
2013-05-30 10:51:00,52.9,10.6,29.65,NNW,330,20.0,34.0,18,0.00,,,0.00,meteohub,2013-05-30 16:51:00,
2013-05-30 10:56:00,53.2,12.0,29.65,NW,318,16.0,23.0,19,0.00,,,0.00,meteohub,2013-05-30 16:56:00,
2013-05-30 11:01:00,53.6,12.4,29.65,NNW,330,13.0,31.0,19,0.00,,,0.00,meteohub,2013-05-30 17:01:00,
2013-05-30 11:06:00,53.4,13.3,29.66,North,9,2.0,31.0,20,0.00,,,0.00,meteohub,2013-05-30 17:06:00,
2013-05-30 11:11:00,54.1,12.7,29.66,West,273,10.0,31.0,19,0.00,,,0.00,meteohub,2013-05-30 17:11:00,
2013-05-30 11:16:00,53.8,12.4,29.66,NW,321,5.0,21.0,19,0.00,,,0.00,meteohub,2013-05-30 17:16:00,
2013-05-30 11:21:00,54.3,11.7,29.66,WSW,248,4.0,19.0,18,0.00,,,0.00,meteohub,2013-05-30 17:21:00,
2013-05-30 11:26:00,54.0,11.5,29.66,WNW,298,12.0,24.0,18,0.00,,,0.00,meteohub,2013-05-30 17:26:00,
2013-05-30 11:31:00,53.4,10.9,29.66,West,280,8.0,24.0,18,0.00,,,0.00,meteohub,2013-05-30 17:31:00,
2013-05-30 11:37:00,54.1,11.5,29.66,West,273,7.0,24.0,18,0.00,,,0.00,meteohub,2013-05-30 17:37:00,
2013-05-30 11:42:00,53.8,12.4,29.66,NNW,345,6.0,22.0,19,0.00,,,0.00,meteohub,2013-05-30 17:42:00,
2013-05-30 11:47:00,54.3,11.7,29.67,NNW,330,9.0,23.0,18,0.00,,,0.00,meteohub,2013-05-30 17:47:00,
2013-05-30 11:52:00,54.3,11.7,29.67,NW,314,10.0,23.0,18,0.00,,,0.00,meteohub,2013-05-30 17:52:00,
2013-05-30 11:57:00,54.1,11.5,29.66,NW,321,18.0,25.0,18,0.00,,,0.00,meteohub,2013-05-30 17:57:00,
2013-05-30 12:02:00,54.3,11.7,29.66,NW,326,13.0,32.0,18,0.00,,,0.00,meteohub,2013-05-30 18:02:00,
2013-05-30 12:07:00,54.7,12.0,29.67,NW,321,10.0,32.0,18,0.00,,,0.00,meteohub,2013-05-30 18:07:00,
2013-05-30 12:12:00,54.5,10.6,29.66,NW,326,20.0,32.0,17,0.00,,,0.00,meteohub,2013-05-30 18:12:00,
2013-05-30 12:17:00,54.7,10.8,29.67,West,267,3.0,33.0,17,0.00,,,0.00,meteohub,2013-05-30 18:17:00,
2013-05-30 12:22:00,54.7,13.3,29.66,North,352,10.0,33.0,19,0.00,,,0.00,meteohub,2013-05-30 18:22:00,
2013-05-30 12:27:00,54.0,11.5,29.65,NW,319,36.0,44.0,18,0.00,,,0.00,meteohub,2013-05-30 18:27:00,
2013-05-30 12:32:00,54.3,10.4,29.66,North,351,9.0,44.0,17,0.00,,,0.00,meteohub,2013-05-30 18:32:00,
2013-05-30 12:37:00,54.9,9.5,29.65,NNW,328,20.0,44.0,16,0.00,,,0.00,meteohub,2013-05-30 18:37:00,
2013-05-30 12:42:00,55.4,9.9,29.64,NW,319,18.0,40.0,16,0.00,,,0.00,meteohub,2013-05-30 18:42:00,
2013-05-30 12:47:00,55.8,10.2,29.65,NW,325,20.0,36.0,16,0.00,,,0.00,meteohub,2013-05-30 18:47:00,
2013-05-30 12:52:00,54.9,10.8,29.65,NNW,335,24.0,36.0,17,0.00,,,0.00,meteohub,2013-05-30 18:52:00,
2013-05-30 12:57:00,55.0,9.7,29.63,NW,323,20.0,34.0,16,0.00,,,0.00,meteohub,2013-05-30 18:57:00,
2013-05-30 13:02:00,55.8,11.7,29.64,NW,316,13.0,41.0,17,0.00,,,0.00,meteohub,2013-05-30 19:02:00,
2013-05-30 13:07:00,55.4,9.9,29.65,West,274,9.0,41.0,16,0.00,,,0.00,meteohub,2013-05-30 19:07:00,
2013-05-30 13:12:00,55.2,11.1,29.64,NW,325,15.0,40.0,17,0.00,,,0.00,meteohub,2013-05-30 19:12:00,
2013-05-30 13:17:00,55.9,9.0,29.65,SW,231,9.0,30.0,15,0.00,,,0.00,meteohub,2013-05-30 19:17:00,
2013-05-30 13:22:00,56.1,10.6,29.66,NW,316,13.0,24.0,16,0.00,,,0.00,meteohub,2013-05-30 19:22:00,
2013-05-30 13:27:00,56.1,10.6,29.65,West,280,29.0,29.0,16,0.00,,,0.00,meteohub,2013-05-30 19:27:00,
2013-05-30 13:32:00,57.0,11.3,29.65,WNW,291,13.0,31.0,16,0.00,,,0.00,meteohub,2013-05-30 19:32:00,
2013-05-30 13:37:00,57.0,9.9,29.64,NW,317,19.0,31.0,15,0.00,,,0.00,meteohub,2013-05-30 19:37:00,
2013-05-30 13:42:00,56.7,12.4,29.65,NW,318,8.0,31.0,17,0.00,,,0.00,meteohub,2013-05-30 19:42:00,
2013-05-30 13:47:00,57.4,12.9,29.65,WNW,287,11.0,25.0,17,0.00,,,0.00,meteohub,2013-05-30 19:47:00,
2013-05-30 13:52:00,57.0,11.3,29.64,NW,324,11.0,25.0,16,0.00,,,0.00,meteohub,2013-05-30 19:52:00,
2013-05-30 13:57:00,56.8,11.1,29.65,WSW,238,20.0,21.0,16,0.00,,,0.00,meteohub,2013-05-30 19:57:00,
2013-05-30 14:02:00,56.8,9.7,29.65,WNW,282,13.0,28.0,15,0.00,,,0.00,meteohub,2013-05-30 20:02:00,
2013-05-30 14:07:00,57.2,12.7,29.64,WNW,301,5.0,30.0,17,0.00,,,0.00,meteohub,2013-05-30 20:07:00,
2013-05-30 14:12:00,57.6,11.7,29.65,West,280,21.0,30.0,16,0.00,,,0.00,meteohub,2013-05-30 20:12:00,
2013-05-30 14:17:00,57.7,11.8,29.65,NNW,347,7.0,33.0,16,0.00,,,0.00,meteohub,2013-05-30 20:17:00,
2013-05-30 14:22:00,57.0,11.3,29.64,NNW,334,8.0,33.0,16,0.00,,,0.00,meteohub,2013-05-30 20:22:00,
2013-05-30 14:27:00,57.7,13.3,29.62,NNW,327,16.0,26.0,17,0.00,,,0.00,meteohub,2013-05-30 20:27:00,
2013-05-30 14:32:00,57.7,13.3,29.64,WSW,252,9.0,27.0,17,0.00,,,0.00,meteohub,2013-05-30 20:32:00,
2013-05-30 14:37:00,58.3,13.6,29.64,West,270,9.0,27.0,17,0.00,,,0.00,meteohub,2013-05-30 20:37:00,
2013-05-30 14:42:00,58.5,13.8,29.65,West,271,12.0,27.0,17,0.00,,,0.00,meteohub,2013-05-30 20:42:00,
2013-05-30 14:47:00,58.3,13.6,29.64,SE,146,1.0,23.0,17,0.00,,,0.00,meteohub,2013-05-30 20:47:00,
2013-05-30 14:52:00,59.0,16.7,29.64,NNW,328,7.0,23.0,19,0.00,,,0.00,meteohub,2013-05-30 20:52:00,
2013-05-30 14:57:00,57.9,14.7,29.64,WNW,298,12.0,31.0,18,0.00,,,0.00,meteohub,2013-05-30 20:57:00,
2013-05-30 15:02:00,57.9,14.7,29.64,West,273,15.0,32.0,18,0.00,,,0.00,meteohub,2013-05-30 21:02:00,
2013-05-30 15:07:00,58.1,12.2,29.64,NNW,344,2.0,32.0,16,0.00,,,0.00,meteohub,2013-05-30 21:07:00,
2013-05-30 15:12:00,58.5,13.8,29.64,NW,319,10.0,23.0,17,0.00,,,0.00,meteohub,2013-05-30 21:12:00,
2013-05-30 15:17:00,59.0,12.9,29.64,NNW,328,13.0,21.0,16,0.00,,,0.00,meteohub,2013-05-30 21:17:00,
2013-05-30 15:22:00,59.4,11.7,29.64,SW,222,13.0,21.0,15,0.00,,,0.00,meteohub,2013-05-30 21:22:00,
2013-05-30 15:27:00,58.8,9.7,29.63,WSW,252,13.0,32.0,14,0.00,,,0.00,meteohub,2013-05-30 21:27:00,
2013-05-30 15:32:00,59.4,11.7,29.65,WNW,284,25.0,32.0,15,0.00,,,0.00,meteohub,2013-05-30 21:32:00,
2013-05-30 15:37:00,58.6,11.1,29.63,NW,308,25.0,32.0,15,0.00,,,0.00,meteohub,2013-05-30 21:37:00,
2013-05-30 15:42:00,59.5,11.8,29.64,WNW,290,14.0,28.0,15,0.00,,,0.00,meteohub,2013-05-30 21:42:00,
2013-05-30 15:47:00,58.8,11.3,29.63,SW,235,19.0,25.0,15,0.00,,,0.00,meteohub,2013-05-30 21:47:00,
2013-05-30 15:52:00,58.8,11.3,29.63,WSW,255,16.0,35.0,15,0.00,,,0.00,meteohub,2013-05-30 21:52:00,
2013-05-30 15:57:00,58.8,12.7,29.64,NNW,345,18.0,35.0,16,0.00,,,0.00,meteohub,2013-05-30 21:57:00,
2013-05-30 16:02:00,58.6,12.6,29.63,West,269,13.0,35.0,16,0.00,,,0.00,meteohub,2013-05-30 22:02:00,
2013-05-30 16:07:00,58.6,12.6,29.63,WNW,295,9.0,33.0,16,0.00,,,0.00,meteohub,2013-05-30 22:07:00,
2013-05-30 16:12:00,58.8,12.7,29.62,SW,221,12.0,33.0,16,0.00,,,0.00,meteohub,2013-05-30 22:12:00,
2013-05-30 16:17:00,59.4,11.7,29.63,WNW,294,5.0,33.0,15,0.00,,,0.00,meteohub,2013-05-30 22:17:00,
2013-05-30 16:22:00,59.2,10.0,29.61,North,349,25.0,25.0,14,0.00,,,0.00,meteohub,2013-05-30 22:22:00,
2013-05-30 16:27:00,59.4,11.7,29.63,NW,312,11.0,33.0,15,0.00,,,0.00,meteohub,2013-05-30 22:27:00,
2013-05-30 16:32:00,59.2,11.5,29.64,WSW,238,13.0,33.0,15,0.00,,,0.00,meteohub,2013-05-30 22:32:00,
2013-05-30 16:37:00,59.4,11.7,29.63,WNW,285,15.0,33.0,15,0.00,,,0.00,meteohub,2013-05-30 22:37:00,
2013-05-30 16:42:00,59.4,10.2,29.63,WSW,257,13.0,29.0,14,0.00,,,0.00,meteohub,2013-05-30 22:42:00,
2013-05-30 16:47:00,59.5,10.2,29.62,NW,326,13.0,25.0,14,0.00,,,0.00,meteohub,2013-05-30 22:47:00,
2013-05-30 16:52:00,59.7,12.0,29.62,WNW,285,8.0,24.0,15,0.00,,,0.00,meteohub,2013-05-30 22:52:00,
2013-05-30 16:57:00,60.4,10.9,29.62,West,262,8.0,24.0,14,0.00,,,0.00,meteohub,2013-05-30 22:57:00,
2013-05-30 17:02:00,60.3,10.9,29.62,NW,316,9.0,24.0,14,0.00,,,0.00,meteohub,2013-05-30 23:02:00,
2013-05-30 17:07:00,60.6,11.1,29.62,NNW,330,10.0,16.0,14,0.00,,,0.00,meteohub,2013-05-30 23:07:00,
2013-05-30 17:12:00,60.3,10.9,29.62,NNW,348,9.0,34.0,14,0.00,,,0.00,meteohub,2013-05-30 23:12:00,
2013-05-30 17:17:00,60.4,10.9,29.62,WNW,298,7.0,34.0,14,0.00,,,0.00,meteohub,2013-05-30 23:17:00,
2013-05-30 17:23:00,60.3,10.9,29.62,West,277,7.0,34.0,14,0.00,,,0.00,meteohub,2013-05-30 23:23:00,
2013-05-30 17:28:00,60.3,10.9,29.63,WSW,253,10.0,25.0,14,0.00,,,0.00,meteohub,2013-05-30 23:28:00,
2013-05-30 17:33:00,59.9,10.6,29.62,NNW,338,17.0,19.0,14,0.00,,,0.00,meteohub,2013-05-30 23:33:00,
2013-05-30 17:38:00,59.7,10.4,29.62,NW,312,10.0,25.0,14,0.00,,,0.00,meteohub,2013-05-30 23:38:00,
2013-05-30 17:43:00,60.3,12.4,29.63,SW,214,4.0,25.0,15,0.00,,,0.00,meteohub,2013-05-30 23:43:00,
2013-05-30 17:48:00,60.3,12.4,29.63,NW,312,2.0,25.0,15,0.00,,,0.00,meteohub,2013-05-30 23:48:00,
2013-05-30 17:53:00,60.4,12.6,29.63,WSW,248,6.0,19.0,15,0.00,,,0.00,meteohub,2013-05-30 23:53:00,
2013-05-30 17:58:00,60.4,14.0,29.63,NW,321,2.0,18.0,16,0.00,,,0.00,meteohub,2013-05-30 23:58:00,
2013-05-30 18:03:00,60.4,12.6,29.62,WNW,302,4.0,18.0,15,0.00,,,0.00,meteohub,2013-05-31 00:03:00,
2013-05-30 18:08:00,60.1,13.6,29.62,NNW,328,12.0,19.0,16,0.00,,,0.00,meteohub,2013-05-31 00:08:00,
2013-05-30 18:13:00,59.5,13.3,29.63,WSW,257,12.0,23.0,16,0.00,,,0.00,meteohub,2013-05-31 00:13:00,
2013-05-30 18:18:00,59.2,12.9,29.63,WNW,295,3.0,23.0,16,0.00,,,0.00,meteohub,2013-05-31 00:18:00,
2013-05-30 18:23:00,59.7,13.5,29.63,South,172,8.0,25.0,16,0.00,,,0.00,meteohub,2013-05-31 00:23:00,
2013-05-30 18:28:00,59.5,11.8,29.63,NW,308,5.0,25.0,15,0.00,,,0.00,meteohub,2013-05-31 00:28:00,
2013-05-30 18:33:00,59.4,11.7,29.63,WNW,302,6.0,25.0,15,0.00,,,0.00,meteohub,2013-05-31 00:33:00,
2013-05-30 18:38:00,58.6,9.5,29.63,West,262,20.0,31.0,14,0.00,,,0.00,meteohub,2013-05-31 00:38:00,
2013-05-30 18:44:00,57.7,10.4,29.64,WNW,287,15.0,31.0,15,0.00,,,0.00,meteohub,2013-05-31 00:44:00,
2013-05-30 18:49:00,57.4,10.0,29.63,North,355,17.0,31.0,15,0.00,,,0.00,meteohub,2013-05-31 00:49:00,
2013-05-30 18:54:00,57.4,11.5,29.63,WNW,302,3.0,30.0,16,0.00,,,0.00,meteohub,2013-05-31 00:54:00,
2013-05-30 18:59:00,57.0,11.3,29.64,NW,323,5.0,30.0,16,0.00,,,0.00,meteohub,2013-05-31 00:59:00,
2013-05-30 19:04:00,56.5,12.2,29.64,West,273,9.0,30.0,17,0.00,,,0.00,meteohub,2013-05-31 01:04:00,
2013-05-30 19:09:00,55.9,13.1,29.65,WSW,252,16.0,17.0,18,0.00,,,0.00,meteohub,2013-05-31 01:09:00,
2013-05-30 19:14:00,55.8,12.9,29.65,WSW,256,25.0,25.0,18,0.00,,,0.00,meteohub,2013-05-31 01:14:00,
2013-05-30 19:19:00,55.6,12.7,29.65,WNW,287,5.0,22.0,18,0.00,,,0.00,meteohub,2013-05-31 01:19:00,
2013-05-30 19:24:00,55.2,13.6,29.65,NW,308,7.0,25.0,19,0.00,,,0.00,meteohub,2013-05-31 01:24:00,
2013-05-30 19:29:00,55.0,13.5,29.65,NW,322,6.0,25.0,19,0.00,,,0.00,meteohub,2013-05-31 01:29:00,
2013-05-30 19:34:00,55.0,13.5,29.65,WSW,245,14.0,18.0,19,0.00,,,0.00,meteohub,2013-05-31 01:34:00,
2013-05-30 19:39:00,55.0,13.5,29.65,West,266,7.0,21.0,19,0.00,,,0.00,meteohub,2013-05-31 01:39:00,
2013-05-30 19:44:00,55.0,13.5,29.66,WNW,295,12.0,25.0,19,0.00,,,0.00,meteohub,2013-05-31 01:44:00,
2013-05-30 19:49:00,55.0,14.7,29.67,WNW,301,6.0,25.0,20,0.00,,,0.00,meteohub,2013-05-31 01:49:00,
2013-05-30 19:54:00,54.9,14.5,29.67,WNW,300,12.0,25.0,20,0.00,,,0.00,meteohub,2013-05-31 01:54:00,
2013-05-30 19:59:00,54.7,15.4,29.67,NW,309,12.0,19.0,21,0.00,,,0.00,meteohub,2013-05-31 01:59:00,
2013-05-30 20:04:00,54.7,15.4,29.68,WNW,295,13.0,19.0,21,0.00,,,0.00,meteohub,2013-05-31 02:04:00,
2013-05-30 20:10:00,54.5,15.3,29.68,NW,318,11.0,22.0,21,0.00,,,0.00,meteohub,2013-05-31 02:10:00,
2013-05-30 20:15:00,54.3,15.3,29.68,WNW,302,4.0,22.0,21,0.00,,,0.00,meteohub,2013-05-31 02:15:00,
2013-05-30 20:20:00,54.1,16.2,29.68,WSW,256,11.0,22.0,22,0.00,,,0.00,meteohub,2013-05-31 02:20:00,
2013-05-30 20:25:00,54.1,16.2,29.68,WSW,257,9.0,19.0,22,0.00,,,0.00,meteohub,2013-05-31 02:25:00,
2013-05-30 20:30:00,54.0,16.0,29.68,WSW,255,15.0,26.0,22,0.00,,,0.00,meteohub,2013-05-31 02:30:00,
2013-05-30 20:35:00,54.1,16.2,29.68,West,270,14.0,26.0,22,0.00,,,0.00,meteohub,2013-05-31 02:35:00,
2013-05-30 20:40:00,54.1,16.2,29.69,SW,225,10.0,26.0,22,0.00,,,0.00,meteohub,2013-05-31 02:40:00,
2013-05-30 20:45:00,54.0,16.0,29.69,NW,326,4.0,25.0,22,0.00,,,0.00,meteohub,2013-05-31 02:45:00,
2013-05-30 20:50:00,53.8,16.9,29.69,NNW,346,3.0,25.0,23,0.00,,,0.00,meteohub,2013-05-31 02:50:00,
2013-05-30 20:55:00,53.6,16.7,29.69,WSW,248,2.0,20.0,23,0.00,,,0.00,meteohub,2013-05-31 02:55:00,
2013-05-30 21:00:00,53.6,16.7,29.69,NW,321,6.0,19.0,23,0.00,,,0.00,meteohub,2013-05-31 03:00:00,
2013-05-30 21:05:00,53.4,16.5,29.69,WNW,291,1.0,16.0,23,0.00,,,0.00,meteohub,2013-05-31 03:05:00,
2013-05-30 21:10:00,52.9,16.2,29.69,West,281,3.0,13.0,23,0.00,,,0.00,meteohub,2013-05-31 03:10:00,
2013-05-30 21:15:00,52.9,17.1,29.70,West,272,6.0,9.0,24,0.00,,,0.00,meteohub,2013-05-31 03:15:00,
2013-05-30 21:20:00,53.1,17.2,29.69,NNW,330,5.0,13.0,24,0.00,,,0.00,meteohub,2013-05-31 03:20:00,
2013-05-30 21:25:00,53.1,17.2,29.70,NW,307,3.0,13.0,24,0.00,,,0.00,meteohub,2013-05-31 03:25:00,
2013-05-30 21:31:00,52.9,17.1,29.69,NW,313,4.0,13.0,24,0.00,,,0.00,meteohub,2013-05-31 03:31:00,
2013-05-30 21:36:00,52.5,16.7,29.70,NNW,329,3.0,13.0,24,0.00,,,0.00,meteohub,2013-05-31 03:36:00,
2013-05-30 21:41:00,52.9,17.1,29.70,North,349,2.0,12.0,24,0.00,,,0.00,meteohub,2013-05-31 03:41:00,
2013-05-30 21:46:00,52.7,16.9,29.70,WSW,254,3.0,11.0,24,0.00,,,0.00,meteohub,2013-05-31 03:46:00,
2013-05-30 21:51:00,52.5,16.7,29.71,WSW,253,1.0,11.0,24,0.00,,,0.00,meteohub,2013-05-31 03:51:00,
2013-05-30 21:56:00,52.5,16.7,29.71,West,273,1.0,7.0,24,0.00,,,0.00,meteohub,2013-05-31 03:56:00,
2013-05-30 22:01:00,52.5,17.8,29.71,WNW,294,0.0,4.0,25,0.00,,,0.00,meteohub,2013-05-31 04:01:00,
2013-05-30 22:02:00,52.5,16.7,29.71,NW,305,0.0,4.0,24,0.00,,,0.00,meteohub,2013-05-31 04:02:00,
2013-05-30 22:03:00,52.5,16.7,29.71,NW,304,0.0,4.0,24,0.00,,,0.00,meteohub,2013-05-31 04:03:00,
2013-05-30 22:05:00,52.5,16.7,29.71,NW,304,0.0,4.0,24,0.00,,,0.00,meteohub,2013-05-31 04:05:00,
2013-05-30 22:06:00,52.5,16.7,29.71,WSW,243,0.0,3.0,24,0.00,,,0.00,meteohub,2013-05-31 04:06:00,
2013-05-30 22:11:00,52.5,16.7,29.72,WNW,287,0.0,3.0,24,0.00,,,0.00,meteohub,2013-05-31 04:11:00,
2013-05-30 22:16:00,52.3,17.6,29.72,WNW,286,0.0,3.0,25,0.00,,,0.00,meteohub,2013-05-31 04:16:00,
2013-05-30 22:21:00,52.3,17.6,29.72,WNW,290,1.0,2.0,25,0.00,,,0.00,meteohub,2013-05-31 04:21:00,
2013-05-30 22:26:00,51.4,16.7,29.73,SW,226,4.0,5.0,25,0.00,,,0.00,meteohub,2013-05-31 04:26:00,
2013-05-30 22:31:00,51.6,16.9,29.72,SSW,203,1.0,5.0,25,0.00,,,0.00,meteohub,2013-05-31 04:31:00,
2013-05-30 22:36:00,52.0,17.2,29.72,SE,124,1.0,5.0,25,0.00,,,0.00,meteohub,2013-05-31 04:36:00,
2013-05-30 22:41:00,52.5,17.8,29.72,East,100,0.0,5.0,25,0.00,,,0.00,meteohub,2013-05-31 04:41:00,
2013-05-30 22:46:00,52.2,17.4,29.73,SE,134,4.0,4.0,25,0.00,,,0.00,meteohub,2013-05-31 04:46:00,
2013-05-30 22:52:00,52.2,17.4,29.73,NNW,337,1.0,8.0,25,0.00,,,0.00,meteohub,2013-05-31 04:52:00,
2013-05-30 22:57:00,52.5,17.8,29.73,NW,321,6.0,14.0,25,0.00,,,0.00,meteohub,2013-05-31 04:57:00,
2013-05-30 23:02:00,53.1,18.1,29.73,WNW,298,8.0,14.0,25,0.00,,,0.00,meteohub,2013-05-31 05:02:00,
2013-05-30 23:07:00,53.2,17.4,29.74,NNW,348,8.0,15.0,24,0.00,,,0.00,meteohub,2013-05-31 05:07:00,
2013-05-30 23:12:00,53.4,18.5,29.74,WNW,302,9.0,15.0,25,0.00,,,0.00,meteohub,2013-05-31 05:12:00,
2013-05-30 23:17:00,53.2,18.3,29.74,NNW,339,7.0,16.0,25,0.00,,,0.00,meteohub,2013-05-31 05:17:00,
2013-05-30 23:22:00,53.2,18.3,29.73,WSW,245,0.0,22.0,25,0.00,,,0.00,meteohub,2013-05-31 05:22:00,
2013-05-30 23:27:00,53.2,18.3,29.74,West,263,2.0,22.0,25,0.00,,,0.00,meteohub,2013-05-31 05:27:00,
2013-05-30 23:32:00,53.1,18.1,29.73,West,259,1.0,22.0,25,0.00,,,0.00,meteohub,2013-05-31 05:32:00,
2013-05-30 23:37:00,52.9,18.0,29.74,SE,145,4.0,10.0,25,0.00,,,0.00,meteohub,2013-05-31 05:37:00,
2013-05-30 23:42:00,52.3,18.5,29.74,WSW,253,2.0,5.0,26,0.00,,,0.00,meteohub,2013-05-31 05:42:00,
2013-05-30 23:47:00,52.0,18.1,29.74,SSE,163,0.0,5.0,26,0.00,,,0.00,meteohub,2013-05-31 05:47:00,
2013-05-30 23:52:00,51.6,17.8,29.74,SSW,207,2.0,5.0,26,0.00,,,0.00,meteohub,2013-05-31 05:52:00,
2013-05-30 23:57:00,51.6,18.7,29.73,ESE,117,0.0,5.0,27,0.00,,,0.00,meteohub,2013-05-31 05:57:00,